Time;durP1;ratioP1;P1;durP2;ratioP2;P2;SDS_P1;SDS_P2;PMS_P1;PMS_P2;Temp;Humidity;BMP_temperature;BMP_pressure;BME280_temperature;BME280_humidity;BME280_pressure;Samples;Min_cycle;Max_cycle;Signal;HPM_P1;HPM_P2
2021/12/22 00:02:08;;;;;;;12.77;6.93;;;-2.10;99.90;;;;;;8281399;28;20187;-83
2021/12/22 00:06:09;;;;;;;12.80;5.97;;;-2.10;99.90;;;;;;8279326;28;20179;-84
2021/12/22 00:10:10;;;;;;;13.20;6.73;;;-2.10;99.90;;;;;;8278494;28;20320;-85
2021/12/22 00:14:11;;;;;;;12.00;7.53;;;-2.10;99.90;;;;;;8294796;28;20197;-83
2021/12/22 00:18:12;;;;;;;9.50;5.90;;;-2.10;99.90;;;;;;8281222;28;20222;-85
2021/12/22 00:22:13;;;;;;;10.57;5.97;;;-2.10;99.90;;;;;;8280629;28;20515;-83
2021/12/22 00:26:15;;;;;;;8.30;5.33;;;-2.10;99.90;;;;;;8298664;28;20193;-85
2021/12/22 00:30:16;;;;;;;9.97;6.17;;;-2.10;99.90;;;;;;8286367;28;20239;-86
2021/12/22 00:34:17;;;;;;;9.90;5.60;;;-2.10;99.90;;;;;;8284419;28;20249;-86
2021/12/22 00:38:20;;;;;;;11.10;6.30;;;-2.10;99.90;;;;;;8281399;28;20298;-85
2021/12/22 00:42:22;;;;;;;10.07;5.73;;;-2.00;99.90;;;;;;8274249;28;20187;-86
2021/12/22 00:46:23;;;;;;;7.97;5.47;;;-2.00;99.90;;;;;;8250906;28;20199;-86
2021/12/22 00:50:24;;;;;;;7.90;5.23;;;-2.00;99.90;;;;;;8245870;28;20202;-86
2021/12/22 00:54:25;;;;;;;8.73;5.03;;;-1.90;99.90;;;;;;8224188;28;20217;-86
2021/12/22 00:58:26;;;;;;;8.40;5.70;;;-1.90;99.90;;;;;;8214696;28;20225;-86
2021/12/22 01:02:27;;;;;;;8.27;5.97;;;-1.90;99.90;;;;;;8224506;28;20629;-85
2021/12/22 01:06:28;;;;;;;6.20;4.43;;;-1.90;99.90;;;;;;8227147;28;20297;-85
2021/12/22 01:10:30;;;;;;;8.33;5.47;;;-1.90;99.90;;;;;;8226966;28;20204;-85
2021/12/22 01:14:31;;;;;;;7.43;5.00;;;-2.00;99.90;;;;;;8270062;28;20199;-86
2021/12/22 01:18:34;;;;;;;7.87;4.63;;;-2.00;99.90;;;;;;8290957;28;20698;-86
2021/12/22 01:22:48;;;;;;;10.73;5.77;;;-2.00;99.90;;;;;;8291538;28;20200;-83
2021/12/22 01:26:57;;;;;;;9.20;5.70;;;-2.00;99.90;;;;;;8297600;28;20206;-83
2021/12/22 01:31:02;;;;;;;7.50;4.87;;;-2.00;99.90;;;;;;8296883;28;20290;-84
2021/12/22 01:35:06;;;;;;;10.37;6.17;;;-2.00;99.90;;;;;;8297112;28;20196;-84
2021/12/22 01:39:08;;;;;;;10.77;6.07;;;-2.10;99.90;;;;;;8296627;28;20223;-86
2021/12/22 01:43:14;;;;;;;9.10;5.37;;;-2.10;99.90;;;;;;8314737;28;20195;-83
2021/12/22 01:52:01;;;;;;;7.93;5.07;;;-2.10;99.90;;;;;;8315651;28;20286;-86
2021/12/22 01:56:17;;;;;;;7.07;4.87;;;-2.10;99.90;;;;;;8299857;28;20216;-86
2021/12/22 02:00:20;;;;;;;8.27;5.47;;;-2.10;99.90;;;;;;8297657;28;20227;-84
2021/12/22 02:04:21;;;;;;;9.97;5.47;;;-2.10;99.90;;;;;;8313358;28;20289;-86
2021/12/22 02:08:22;;;;;;;7.60;4.97;;;-2.10;99.90;;;;;;8294933;28;20227;-83
2021/12/22 02:12:26;;;;;;;9.13;6.07;;;-2.10;99.90;;;;;;8297807;28;20199;-84
2021/12/22 02:16:31;;;;;;;9.10;6.07;;;-2.10;99.90;;;;;;8297649;28;20190;-85
2021/12/22 02:20:32;;;;;;;9.10;5.13;;;-2.10;99.90;;;;;;8297162;28;20191;-86
2021/12/22 02:24:32;;;;;;;12.30;6.60;;;-2.10;99.90;;;;;;8298106;28;20242;-83
2021/12/22 02:28:36;;;;;;;10.07;5.47;;;-2.10;99.90;;;;;;8303343;28;21039;-85
2021/12/22 02:36:58;;;;;;;10.63;5.90;;;-2.20;99.90;;;;;;8319545;28;20222;-85
2021/12/22 02:41:00;;;;;;;8.83;5.13;;;-2.20;99.90;;;;;;8321586;28;20175;-85
2021/12/22 02:45:12;;;;;;;8.93;4.90;;;-2.20;99.90;;;;;;8302501;28;20201;-85
2021/12/22 02:49:12;;;;;;;13.07;7.53;;;-2.30;99.90;;;;;;8304121;28;20221;-86
2021/12/22 02:53:15;;;;;;;8.77;5.43;;;-2.30;99.90;;;;;;8276742;28;20211;-86
2021/12/22 02:57:33;;;;;;;8.60;5.57;;;-2.40;99.90;;;;;;8162811;28;20358;-84
2021/12/22 03:05:38;;;;;;;7.67;4.93;;;-2.40;99.90;;;;;;8080481;28;20183;-85
2021/12/22 03:09:39;;;;;;;8.43;4.83;;;-2.40;99.90;;;;;;8061061;28;20804;-85
2021/12/22 03:13:40;;;;;;;7.70;4.60;;;-2.30;99.90;;;;;;8057078;28;20275;-85
2021/12/22 03:17:41;;;;;;;7.37;4.30;;;-2.30;99.90;;;;;;8121519;28;20226;-84
2021/12/22 03:21:46;;;;;;;10.17;5.23;;;-2.30;99.90;;;;;;8078743;28;20270;-83
2021/12/22 03:25:47;;;;;;;8.10;5.53;;;-2.40;99.90;;;;;;7981312;28;20183;-85
2021/12/22 03:29:51;;;;;;;8.33;6.33;;;-2.40;99.90;;;;;;7987123;28;20195;-85
2021/12/22 03:33:52;;;;;;;10.43;5.93;;;-2.40;99.90;;;;;;8119137;28;20287;-83
2021/12/22 03:37:57;;;;;;;8.33;5.40;;;-2.40;99.90;;;;;;8205946;28;20239;-85
2021/12/22 03:41:58;;;;;;;11.23;6.40;;;-2.30;99.90;;;;;;8226274;28;20267;-83
2021/12/22 03:45:59;;;;;;;10.50;6.90;;;-2.30;99.90;;;;;;8194541;28;20595;-85
2021/12/22 03:50:00;;;;;;;10.40;5.87;;;-2.30;99.90;;;;;;8179835;28;20218;-83
2021/12/22 03:54:04;;;;;;;11.40;6.00;;;-2.40;99.90;;;;;;8256637;28;20221;-85
2021/12/22 03:58:05;;;;;;;10.93;5.73;;;-2.50;99.90;;;;;;8302710;28;20220;-83
2021/12/22 04:02:06;;;;;;;8.73;5.73;;;-2.50;99.90;;;;;;8290606;28;20186;-83
2021/12/22 04:06:07;;;;;;;9.43;5.60;;;-2.50;99.90;;;;;;8205507;28;20780;-85
2021/12/22 04:10:19;;;;;;;9.03;5.30;;;-2.50;99.90;;;;;;8205824;28;20206;-85
2021/12/22 04:14:20;;;;;;;8.57;5.83;;;-2.50;99.90;;;;;;8221941;28;20349;-86
2021/12/22 04:18:21;;;;;;;8.20;5.07;;;-2.50;99.90;;;;;;8140878;28;20238;-82
2021/12/22 04:22:23;;;;;;;10.30;5.77;;;-2.40;99.90;;;;;;8143029;28;20188;-85
2021/12/22 04:26:26;;;;;;;12.07;6.57;;;-2.40;99.90;;;;;;8144630;28;20196;-85
2021/12/22 04:30:27;;;;;;;10.80;7.07;;;-2.50;99.90;;;;;;8122248;28;20515;-85
2021/12/22 04:34:28;;;;;;;12.07;6.90;;;-2.60;99.90;;;;;;8218332;28;20197;-85
2021/12/22 04:38:29;;;;;;;13.67;6.67;;;-2.70;99.90;;;;;;8241872;28;20244;-85
2021/12/22 04:42:30;;;;;;;13.33;7.37;;;-2.70;99.90;;;;;;8238195;28;20199;-84
2021/12/22 04:46:31;;;;;;;14.10;7.80;;;-2.80;99.90;;;;;;8269313;28;20187;-83
2021/12/22 04:50:36;;;;;;;12.33;7.80;;;-2.80;99.90;;;;;;8295028;28;20309;-87
2021/12/22 04:54:48;;;;;;;14.47;7.83;;;-2.80;99.90;;;;;;8313443;28;20215;-83
2021/12/22 04:58:49;;;;;;;14.50;8.27;;;-2.80;99.90;;;;;;8297297;28;20214;-83
2021/12/22 05:02:50;;;;;;;16.50;8.07;;;-2.80;99.90;;;;;;8312327;28;20293;-84
2021/12/22 05:06:51;;;;;;;12.13;7.77;;;-2.80;99.90;;;;;;8293712;28;20212;-87
2021/12/22 05:10:55;;;;;;;13.30;7.77;;;-2.80;99.90;;;;;;8296684;28;20248;-86
2021/12/22 05:14:56;;;;;;;14.00;7.77;;;-2.80;99.90;;;;;;8296161;28;20357;-84
2021/12/22 05:18:59;;;;;;;14.50;7.70;;;-2.70;99.90;;;;;;8298366;28;20285;-83
2021/12/22 05:23:00;;;;;;;10.83;7.30;;;-2.70;99.90;;;;;;8296588;28;20187;-85
2021/12/22 05:27:01;;;;;;;9.50;6.30;;;-2.70;99.90;;;;;;8296910;28;20194;-85
2021/12/22 05:31:02;;;;;;;12.47;9.07;;;-2.60;99.90;;;;;;8311833;28;20190;-85
2021/12/22 05:35:06;;;;;;;10.33;7.10;;;-2.50;99.90;;;;;;8294877;28;20203;-85
2021/12/22 05:39:06;;;;;;;7.40;5.27;;;-2.40;99.90;;;;;;8313822;28;20245;-85
2021/12/22 05:43:07;;;;;;;7.83;4.53;;;-2.30;99.90;;;;;;8293233;28;20191;-86
2021/12/22 05:47:08;;;;;;;8.73;5.37;;;-2.30;99.90;;;;;;8298804;28;20192;-85
2021/12/22 05:51:10;;;;;;;10.53;5.70;;;-2.20;99.90;;;;;;8297094;28;20196;-85
2021/12/22 05:55:11;;;;;;;6.87;4.93;;;-2.20;99.90;;;;;;8297525;28;20221;-82
2021/12/22 05:59:12;;;;;;;8.77;6.10;;;-2.20;99.90;;;;;;8298997;28;20216;-84
2021/12/22 06:03:12;;;;;;;11.80;9.43;;;-2.10;99.90;;;;;;8320409;28;20199;-84
2021/12/22 06:07:13;;;;;;;21.30;14.80;;;-2.10;99.90;;;;;;8228049;28;20606;-84
2021/12/22 06:11:14;;;;;;;19.67;13.50;;;-2.10;99.90;;;;;;8214338;28;20208;-83
2021/12/22 06:15:15;;;;;;;17.10;7.70;;;-2.10;99.90;;;;;;8208955;28;20252;-84
2021/12/22 06:19:16;;;;;;;9.13;6.00;;;-2.20;99.90;;;;;;8198130;28;20220;-84
2021/12/22 06:23:20;;;;;;;9.93;5.77;;;-2.30;99.90;;;;;;8181642;28;20211;-85
2021/12/22 06:27:21;;;;;;;6.03;4.20;;;-2.50;99.90;;;;;;8166971;28;20189;-84
2021/12/22 06:31:22;;;;;;;7.17;4.17;;;-2.70;99.90;;;;;;8147074;28;20192;-85
2021/12/22 06:35:23;;;;;;;6.00;4.57;;;-2.80;99.90;;;;;;8185317;28;20187;-82
2021/12/22 06:39:24;;;;;;;20.17;8.00;;;-3.00;99.90;;;;;;8244211;28;20238;-82
2021/12/22 06:43:25;;;;;;;32.50;14.50;;;-3.10;99.90;;;;;;8193798;28;20273;-85
2021/12/22 06:47:27;;;;;;;24.67;12.97;;;-3.20;99.90;;;;;;8166439;28;20304;-83
2021/12/22 06:51:28;;;;;;;21.27;9.00;;;-3.30;99.90;;;;;;8167879;28;20218;-84
2021/12/22 06:55:31;;;;;;;24.47;10.67;;;-3.30;99.90;;;;;;8181545;28;20218;-85
2021/12/22 06:59:32;;;;;;;17.27;8.60;;;-3.40;99.90;;;;;;8161250;28;20219;-85
2021/12/22 07:03:33;;;;;;;13.77;8.10;;;-3.50;99.90;;;;;;8155521;28;20193;-85
2021/12/22 07:07:35;;;;;;;19.00;9.73;;;-3.50;99.90;;;;;;8177959;28;20186;-85
2021/12/22 07:11:37;;;;;;;16.87;8.60;;;-3.60;99.90;;;;;;8187478;28;20198;-83
2021/12/22 07:15:38;;;;;;;15.37;7.47;;;-3.60;99.90;;;;;;8300189;28;20297;-82
2021/12/22 07:19:39;;;;;;;11.30;6.47;;;-3.70;99.90;;;;;;8220669;28;20588;-84
2021/12/22 07:23:40;;;;;;;15.07;6.23;;;-3.70;99.90;;;;;;8151702;28;21854;-83
2021/12/22 07:27:41;;;;;;;10.27;5.27;;;-3.80;99.90;;;;;;8151922;28;20258;-83
2021/12/22 07:31:42;;;;;;;6.90;4.70;;;-3.90;99.90;;;;;;8167991;28;20268;-84
2021/12/22 07:36:00;;;;;;;6.53;4.00;;;-3.90;99.90;;;;;;8157544;28;20197;-82
2021/12/22 07:40:01;;;;;;;7.00;4.83;;;-4.00;99.90;;;;;;8123619;28;20202;-84
2021/12/22 07:44:02;;;;;;;8.87;5.83;;;-4.00;99.90;;;;;;8117126;28;20476;-83
2021/12/22 07:48:03;;;;;;;7.63;4.97;;;-4.00;99.90;;;;;;8177385;28;20216;-85
2021/12/22 07:52:04;;;;;;;11.97;8.80;;;-4.00;99.90;;;;;;8212401;28;20201;-84
2021/12/22 07:56:05;;;;;;;20.53;13.73;;;-4.00;99.90;;;;;;8223687;28;20221;-82
2021/12/22 08:00:07;;;;;;;19.13;11.40;;;-3.80;99.90;;;;;;8222486;28;20214;-78
2021/12/22 08:04:08;;;;;;;12.17;7.87;;;-3.70;99.90;;;;;;8209566;28;20245;-80
2021/12/22 08:08:09;;;;;;;9.87;6.20;;;-3.70;99.90;;;;;;8219770;28;20784;-78
2021/12/22 08:12:10;;;;;;;8.63;5.53;;;-3.60;99.90;;;;;;8225813;28;20202;-83
2021/12/22 08:16:11;;;;;;;8.57;4.83;;;-3.50;99.90;;;;;;8236313;28;20203;-82
2021/12/22 08:20:13;;;;;;;7.70;4.90;;;-3.40;99.90;;;;;;8274614;28;20218;-86
2021/12/22 08:24:14;;;;;;;12.93;6.77;;;-3.20;99.90;;;;;;8245353;28;20190;-83
2021/12/22 08:28:15;;;;;;;10.00;6.40;;;-3.10;99.90;;;;;;8248926;28;20221;-84
2021/12/22 08:32:18;;;;;;;20.57;10.87;;;-2.90;99.90;;;;;;8274632;28;20203;-83
2021/12/22 08:40:38;;;;;;;18.37;9.90;;;-2.50;99.90;;;;;;8277417;28;20242;-86
2021/12/22 08:44:39;;;;;;;22.67;16.07;;;-2.30;99.90;;;;;;8257597;28;20191;-84
2021/12/22 08:48:40;;;;;;;23.63;17.43;;;-2.10;99.90;;;;;;8186453;28;20235;-83
2021/12/22 08:52:40;;;;;;;37.00;24.27;;;-2.00;99.90;;;;;;8185285;28;20215;-83
2021/12/22 08:56:41;;;;;;;41.60;25.17;;;-1.80;99.90;;;;;;8203766;28;20236;-79
2021/12/22 09:00:43;;;;;;;24.20;14.43;;;-1.70;99.90;;;;;;8175368;28;20216;-84
2021/12/22 09:04:44;;;;;;;20.30;10.90;;;-1.50;99.90;;;;;;8160599;28;20582;-84
2021/12/22 09:08:45;;;;;;;16.73;10.87;;;-1.40;99.90;;;;;;8162540;28;20264;-84
2021/12/22 09:12:47;;;;;;;19.57;11.50;;;-1.30;99.90;;;;;;8168595;28;20269;-83
2021/12/22 09:16:48;;;;;;;17.70;11.77;;;-1.20;99.90;;;;;;8221446;28;20183;-83
2021/12/22 09:20:49;;;;;;;25.27;19.13;;;-1.00;99.90;;;;;;8314810;28;20392;-85
2021/12/22 09:24:50;;;;;;;29.90;21.87;;;-0.90;99.90;;;;;;8296187;28;20200;-79
2021/12/22 09:28:52;;;;;;;23.50;15.40;;;-0.90;99.90;;;;;;8243049;28;20268;-82
2021/12/22 09:32:54;;;;;;;28.83;16.03;;;-0.80;99.90;;;;;;8204039;28;20194;-84
2021/12/22 09:36:55;;;;;;;25.70;11.87;;;-0.70;99.90;;;;;;8222842;28;20194;-83
2021/12/22 09:40:56;;;;;;;19.43;11.47;;;-0.60;99.90;;;;;;8239888;28;20197;-85
2021/12/22 09:45:00;;;;;;;19.80;11.73;;;-0.50;99.90;;;;;;8254130;28;20605;-83
2021/12/22 09:49:18;;;;;;;29.27;19.57;;;-0.30;99.90;;;;;;8254140;28;20247;-86
2021/12/22 09:53:23;;;;;;;59.17;42.20;;;-0.20;99.90;;;;;;8237373;28;21865;-85
2021/12/22 09:57:24;;;;;;;77.63;56.73;;;-0.10;99.90;;;;;;8252175;28;20214;-82
2021/12/22 10:01:25;;;;;;;120.23;73.23;;;0.00;99.90;;;;;;8302841;28;20194;-84
2021/12/22 10:05:26;;;;;;;39.70;23.80;;;0.10;99.90;;;;;;8314770;28;20237;-82
2021/12/22 10:09:29;;;;;;;22.33;12.17;;;0.20;99.90;;;;;;8298222;28;20275;-83
2021/12/22 10:13:31;;;;;;;33.00;16.67;;;0.30;99.90;;;;;;8300396;28;20203;-83
2021/12/22 10:17:32;;;;;;;17.67;9.80;;;0.30;99.90;;;;;;8315774;28;20305;-82
2021/12/22 10:21:36;;;;;;;25.67;19.03;;;0.30;99.90;;;;;;8318147;28;20198;-83
2021/12/22 10:25:39;;;;;;;22.47;16.60;;;0.30;99.90;;;;;;8317368;28;20187;-79
2021/12/22 10:29:39;;;;;;;18.80;12.87;;;0.40;99.90;;;;;;8300539;28;20202;-79
2021/12/22 10:33:42;;;;;;;22.40;13.10;;;0.50;99.90;;;;;;8299009;28;20208;-84
2021/12/22 10:37:44;;;;;;;24.43;12.73;;;0.50;99.90;;;;;;8317051;28;20276;-84
2021/12/22 10:41:45;;;;;;;17.77;10.17;;;0.50;99.90;;;;;;8271782;28;20196;-83
2021/12/22 10:45:51;;;;;;;14.80;8.33;;;0.40;99.90;;;;;;8226458;28;20249;-83
2021/12/22 10:49:59;;;;;;;14.00;9.13;;;0.20;99.90;;;;;;8198118;28;20194;-83
2021/12/22 10:54:05;;;;;;;14.90;10.63;;;0.10;99.90;;;;;;8160453;28;20211;-85
2021/12/22 10:58:17;;;;;;;21.50;15.13;;;0.00;99.90;;;;;;8131666;28;20245;-84
2021/12/22 11:02:34;;;;;;;39.17;33.13;;;0.00;99.90;;;;;;8050346;28;20273;-83
2021/12/22 11:06:40;;;;;;;28.17;18.13;;;0.10;99.90;;;;;;8043264;28;20536;-83
2021/12/22 11:10:41;;;;;;;20.43;12.97;;;0.10;99.90;;;;;;8055762;28;20233;-84
2021/12/22 11:14:47;;;;;;;16.90;10.10;;;0.20;99.90;;;;;;8124713;28;20285;-84
2021/12/22 11:18:48;;;;;;;16.23;9.17;;;0.40;99.90;;;;;;8194833;28;20219;-85
2021/12/22 11:23:00;;;;;;;16.47;10.13;;;0.50;99.90;;;;;;8230298;28;20187;-85
2021/12/22 11:27:02;;;;;;;20.87;12.57;;;0.40;99.90;;;;;;8224609;28;20252;-84
2021/12/22 11:31:05;;;;;;;15.17;10.37;;;0.50;99.90;;;;;;8300269;28;20233;-84
2021/12/22 11:35:09;;;;;;;28.17;19.10;;;0.60;99.90;;;;;;8256817;28;20194;-84
2021/12/22 11:39:11;;;;;;;27.67;18.37;;;0.60;99.90;;;;;;8225481;28;20324;-80
2021/12/22 11:43:12;;;;;;;19.60;12.13;;;0.70;99.90;;;;;;8224677;28;20257;-81
2021/12/22 11:47:16;;;;;;;15.40;9.63;;;0.80;99.90;;;;;;8222802;28;20230;-86
2021/12/22 11:51:34;;;;;;;16.00;9.87;;;0.80;99.90;;;;;;8242817;28;20240;-83
2021/12/22 11:55:41;;;;;;;15.57;10.57;;;0.90;99.90;;;;;;8207237;28;20542;-85
2021/12/22 11:59:42;;;;;;;21.43;16.33;;;1.00;99.90;;;;;;8204711;28;20221;-84
2021/12/22 12:03:46;;;;;;;24.67;18.80;;;1.00;99.90;;;;;;8225269;28;20228;-80
2021/12/22 12:07:56;;;;;;;26.93;19.90;;;0.90;99.90;;;;;;8281937;28;20229;-81
2021/12/22 12:11:58;;;;;;;22.23;14.17;;;0.90;99.90;;;;;;8281698;28;20501;-86
2021/12/22 12:24:57;;;;;;;16.40;9.50;;;1.00;99.90;;;;;;8311147;28;20201;-82
2021/12/22 12:28:57;;;;;;;16.50;9.27;;;1.00;99.90;;;;;;8295958;28;20190;-84
2021/12/22 12:33:03;;;;;;;15.03;9.50;;;1.00;99.90;;;;;;8297603;28;20245;-81
2021/12/22 12:37:06;;;;;;;16.57;11.53;;;1.10;99.90;;;;;;8314241;28;20198;-80
2021/12/22 12:41:11;;;;;;;16.90;12.07;;;1.10;99.90;;;;;;8298868;28;20182;-86
2021/12/22 12:45:47;;;;;;;16.13;10.33;;;1.10;99.90;;;;;;8297552;28;20186;-83
2021/12/22 12:49:48;;;;;;;16.13;9.43;;;1.00;99.90;;;;;;8313875;28;20191;-84
2021/12/22 12:53:53;;;;;;;14.47;9.70;;;1.00;99.90;;;;;;8296379;28;20243;-80
2021/12/22 12:58:27;;;;;;;16.40;10.13;;;1.00;99.90;;;;;;8297763;28;20288;-86
2021/12/22 13:02:30;;;;;;;13.40;8.70;;;1.00;99.90;;;;;;8296278;28;20194;-82
2021/12/22 13:06:31;;;;;;;12.57;10.03;;;0.90;99.90;;;;;;8298332;28;20229;-86
2021/12/22 13:10:32;;;;;;;19.43;12.53;;;0.80;99.90;;;;;;8311084;28;20217;-85
2021/12/22 13:18:53;;;;;;;22.63;15.50;;;0.80;99.90;;;;;;8314273;28;20229;-85
2021/12/22 13:22:57;;;;;;;26.73;15.67;;;0.80;99.90;;;;;;8296215;28;20195;-83
2021/12/22 13:26:58;;;;;;;28.87;16.77;;;0.80;99.90;;;;;;8294535;28;20186;-83
2021/12/22 13:31:05;;;;;;;28.80;14.43;;;0.70;99.90;;;;;;8297777;28;20567;-82
2021/12/22 13:35:06;;;;;;;27.00;13.83;;;0.70;99.90;;;;;;8297542;28;20214;-80
2021/12/22 13:39:07;;;;;;;19.37;12.40;;;0.70;99.90;;;;;;8297018;28;20217;-85
2021/12/22 13:43:21;;;;;;;21.63;14.53;;;0.70;99.90;;;;;;8291921;28;20187;-87
2021/12/22 13:47:31;;;;;;;24.23;18.77;;;0.60;99.90;;;;;;8278008;28;20191;-84
2021/12/22 13:51:42;;;;;;;44.10;29.10;;;0.40;99.90;;;;;;8282140;28;20252;-86
2021/12/22 13:55:45;;;;;;;30.67;20.07;;;0.30;99.90;;;;;;8278234;28;20207;-85
2021/12/22 13:59:49;;;;;;;24.57;15.13;;;0.20;99.90;;;;;;8277458;28;20214;-84
2021/12/22 14:04:10;;;;;;;23.70;13.57;;;0.00;99.90;;;;;;8277204;28;20189;-84
2021/12/22 14:08:29;;;;;;;21.70;12.00;;;-0.10;99.90;;;;;;8286840;28;20202;-85
2021/12/22 14:12:33;;;;;;;18.13;11.03;;;-0.20;99.90;;;;;;8312323;28;20202;-86
2021/12/22 14:16:34;;;;;;;21.80;13.10;;;-0.30;99.90;;;;;;8299058;28;20194;-83
2021/12/22 14:20:39;;;;;;;22.83;11.90;;;-0.30;99.90;;;;;;8302131;28;20222;-80
2021/12/22 14:24:43;;;;;;;18.67;12.37;;;-0.40;99.90;;;;;;8303975;28;20201;-86
2021/12/22 14:29:00;;;;;;;17.77;11.50;;;-0.50;99.90;;;;;;8302459;28;20191;-82
2021/12/22 14:33:16;;;;;;;16.03;10.10;;;-0.60;99.90;;;;;;8319603;28;20191;-83
2021/12/22 14:37:29;;;;;;;13.07;9.27;;;-0.80;99.90;;;;;;8280256;28;20186;-84
2021/12/22 14:41:30;;;;;;;15.93;8.77;;;-1.00;99.90;;;;;;8216312;28;20190;-87
2021/12/22 14:45:35;;;;;;;15.53;8.90;;;-1.20;99.90;;;;;;8215914;28;20194;-83
2021/12/22 14:49:38;;;;;;;15.03;9.43;;;-1.30;99.90;;;;;;8217778;28;20190;-82
2021/12/22 14:53:48;;;;;;;17.07;9.87;;;-1.40;99.90;;;;;;8185225;28;20205;-86
2021/12/22 14:57:49;;;;;;;15.80;9.00;;;-1.50;99.90;;;;;;8169991;28;20213;-82
2021/12/22 15:01:51;;;;;;;18.13;10.93;;;-1.70;99.90;;;;;;8167693;28;20186;-84
2021/12/22 15:05:56;;;;;;;25.17;11.93;;;-1.70;99.90;;;;;;8173705;28;20181;-84
2021/12/22 15:09:57;;;;;;;23.83;12.20;;;-1.80;99.90;;;;;;8257135;28;20272;-84
2021/12/22 15:13:58;;;;;;;19.70;10.53;;;-1.90;99.90;;;;;;8262630;28;20513;-84
2021/12/22 15:17:59;;;;;;;18.03;9.40;;;-2.00;99.90;;;;;;8266596;28;20219;-84
2021/12/22 15:22:00;;;;;;;22.43;10.53;;;-2.00;99.90;;;;;;8271623;28;20192;-83
2021/12/22 15:26:03;;;;;;;20.60;11.53;;;-2.00;99.90;;;;;;8299631;28;20183;-83
2021/12/22 15:30:05;;;;;;;28.47;13.37;;;-2.00;99.90;;;;;;8299591;28;20282;-79
2021/12/22 15:34:05;;;;;;;35.87;17.27;;;-2.10;99.90;;;;;;8313118;28;20193;-83
2021/12/22 15:38:07;;;;;;;31.43;15.37;;;-2.20;99.90;;;;;;8297749;28;20204;-83
2021/12/22 15:42:08;;;;;;;23.97;12.60;;;-2.30;99.90;;;;;;8301739;28;20271;-84
2021/12/22 15:46:09;;;;;;;20.20;11.70;;;-2.40;99.90;;;;;;8298664;28;20197;-81
2021/12/22 15:50:12;;;;;;;21.80;12.30;;;-2.50;99.90;;;;;;8317015;28;20286;-84
2021/12/22 15:54:13;;;;;;;19.77;11.53;;;-2.60;99.90;;;;;;8258808;28;21186;-83
2021/12/22 15:58:16;;;;;;;23.47;12.90;;;-2.60;99.90;;;;;;8221377;28;20221;-83
2021/12/22 16:02:17;;;;;;;20.87;12.70;;;-2.70;99.90;;;;;;8227026;28;20315;-81
2021/12/22 16:06:18;;;;;;;25.17;14.43;;;-2.80;99.90;;;;;;8194336;28;20253;-84
2021/12/22 16:10:20;;;;;;;25.23;14.00;;;-2.80;99.90;;;;;;8151267;28;20240;-85
2021/12/22 16:14:21;;;;;;;27.53;14.73;;;-2.80;99.90;;;;;;8104895;28;20194;-84
2021/12/22 16:18:22;;;;;;;37.73;17.47;;;-2.70;99.90;;;;;;8083375;28;20207;-82
2021/12/22 16:22:23;;;;;;;34.13;17.80;;;-2.60;99.90;;;;;;8104051;28;20186;-84
2021/12/22 16:26:24;;;;;;;39.63;19.13;;;-2.50;99.90;;;;;;8209498;28;20195;-84
2021/12/22 16:30:26;;;;;;;30.30;16.03;;;-2.40;99.90;;;;;;8207929;28;20282;-84
2021/12/22 16:34:26;;;;;;;38.33;17.97;;;-2.40;99.90;;;;;;8203834;28;20229;-83
2021/12/22 16:38:28;;;;;;;36.87;17.73;;;-2.30;99.90;;;;;;8277503;28;20220;-81
2021/12/22 16:42:28;;;;;;;34.33;18.90;;;-2.30;99.90;;;;;;8289428;28;20191;-84
2021/12/22 16:46:29;;;;;;;32.00;17.80;;;-2.20;99.90;;;;;;8173558;28;20214;-83
2021/12/22 16:50:30;;;;;;;36.63;22.10;;;-2.20;99.90;;;;;;8198307;28;20190;-82
2021/12/22 16:54:31;;;;;;;49.27;30.70;;;-2.20;99.90;;;;;;8159313;28;20211;-80
2021/12/22 16:58:32;;;;;;;82.87;42.03;;;-2.20;99.90;;;;;;8194353;28;20219;-82
2021/12/22 17:02:33;;;;;;;52.93;28.67;;;-2.20;99.90;;;;;;8171456;28;20281;-83
2021/12/22 17:06:39;;;;;;;47.20;22.83;;;-2.20;99.90;;;;;;8208495;28;20206;-80
2021/12/22 17:10:41;;;;;;;48.80;21.83;;;-2.20;99.90;;;;;;8200432;28;20238;-83
2021/12/22 17:14:46;;;;;;;46.67;21.70;;;-2.30;99.90;;;;;;8239855;28;20196;-84
2021/12/22 17:18:47;;;;;;;36.73;18.67;;;-2.30;99.90;;;;;;8228035;28;20803;-84
2021/12/22 17:22:48;;;;;;;38.03;18.73;;;-2.30;99.90;;;;;;8224524;28;20196;-82
2021/12/22 17:26:49;;;;;;;50.27;29.03;;;-2.30;99.90;;;;;;8203416;28;20302;-86
2021/12/22 17:30:50;;;;;;;71.70;42.63;;;-2.20;99.90;;;;;;8207285;28;21512;-83
2021/12/22 17:34:51;;;;;;;71.83;40.30;;;-2.20;99.90;;;;;;8194853;28;20194;-82
2021/12/22 17:38:56;;;;;;;90.97;50.37;;;-2.20;99.90;;;;;;8180139;28;20226;-81
2021/12/22 17:43:00;;;;;;;67.03;36.67;;;-2.20;99.90;;;;;;8181362;28;20623;-85
2021/12/22 17:47:01;;;;;;;55.93;31.90;;;-2.10;99.90;;;;;;8226599;28;20215;-83
2021/12/22 17:51:02;;;;;;;126.37;52.30;;;-2.20;99.90;;;;;;8214764;28;20249;-80
2021/12/22 17:55:05;;;;;;;101.33;42.83;;;-2.20;99.90;;;;;;8201898;28;20277;-85
2021/12/22 17:59:09;;;;;;;102.23;47.30;;;-2.30;99.90;;;;;;8209135;28;20954;-84
2021/12/22 18:03:11;;;;;;;91.23;49.23;;;-2.40;99.90;;;;;;8262335;28;20558;-85
2021/12/22 18:07:13;;;;;;;80.63;45.43;;;-2.50;99.90;;;;;;8292890;28;20284;-82
2021/12/22 18:11:15;;;;;;;90.87;46.70;;;-2.60;99.90;;;;;;8247313;28;21060;-83
2021/12/22 18:15:17;;;;;;;72.23;38.50;;;-2.70;99.90;;;;;;8249173;28;21013;-84
2021/12/22 18:19:19;;;;;;;62.80;29.27;;;-2.70;99.90;;;;;;8250767;28;20258;-84
2021/12/22 18:23:21;;;;;;;50.70;24.83;;;-2.80;99.90;;;;;;8229544;28;20189;-86
2021/12/22 18:27:24;;;;;;;34.53;18.33;;;-2.90;99.90;;;;;;8236726;28;20187;-86
2021/12/22 18:31:24;;;;;;;36.43;19.47;;;-3.00;99.90;;;;;;8213839;28;20391;-84
2021/12/22 18:35:34;;;;;;;39.13;21.33;;;-3.10;99.90;;;;;;8120820;28;20182;-84
2021/12/22 18:39:35;;;;;;;38.97;20.53;;;-3.20;99.90;;;;;;8189876;28;20219;-85
2021/12/22 18:43:38;;;;;;;40.20;21.27;;;-3.30;99.90;;;;;;8235536;28;20198;-83
2021/12/22 18:47:40;;;;;;;62.13;26.93;;;-3.40;99.90;;;;;;8229462;28;20269;-84
2021/12/22 18:51:42;;;;;;;79.30;31.50;;;-3.50;99.90;;;;;;8222447;28;20203;-85
2021/12/22 18:55:44;;;;;;;95.90;36.93;;;-3.60;99.90;;;;;;8217851;28;20210;-83
2021/12/22 18:59:47;;;;;;;76.80;31.03;;;-3.70;99.90;;;;;;8235508;28;20267;-85
2021/12/22 19:03:49;;;;;;;48.40;20.83;;;-3.80;99.90;;;;;;8289402;28;20265;-80
2021/12/22 19:07:50;;;;;;;37.80;17.40;;;-3.90;99.90;;;;;;8301380;28;20190;-82
2021/12/22 19:11:54;;;;;;;45.43;23.60;;;-3.90;99.90;;;;;;8319077;28;20297;-86
2021/12/22 19:15:55;;;;;;;45.03;21.90;;;-4.00;99.90;;;;;;8301186;28;20195;-85
2021/12/22 19:19:57;;;;;;;32.93;17.53;;;-4.10;99.90;;;;;;8300693;28;20249;-85
2021/12/22 19:23:58;;;;;;;32.23;17.00;;;-4.10;99.90;;;;;;8289614;28;20792;-86
2021/12/22 19:28:00;;;;;;;37.43;18.23;;;-4.20;99.90;;;;;;8285372;28;20254;-78
2021/12/22 19:32:03;;;;;;;30.90;16.90;;;-4.30;99.90;;;;;;8288096;28;20194;-84
2021/12/22 19:36:05;;;;;;;28.80;15.27;;;-4.30;99.90;;;;;;8308169;28;20206;-85
2021/12/22 19:40:09;;;;;;;33.10;17.17;;;-4.40;99.90;;;;;;8293159;28;20206;-82
2021/12/22 19:44:14;;;;;;;28.27;15.93;;;-4.40;99.90;;;;;;8277746;28;20186;-85
2021/12/22 19:48:15;;;;;;;29.33;16.10;;;-4.50;99.90;;;;;;8255918;28;20213;-83
2021/12/22 19:52:17;;;;;;;33.90;16.73;;;-4.60;99.90;;;;;;8250289;28;20186;-81
2021/12/22 19:56:20;;;;;;;28.80;15.77;;;-4.60;99.90;;;;;;8251470;28;20243;-85
2021/12/22 20:00:25;;;;;;;42.47;18.93;;;-4.60;99.90;;;;;;8256425;28;20209;-83
2021/12/22 20:04:27;;;;;;;53.90;28.33;;;-4.60;99.90;;;;;;8261569;28;20194;-81
2021/12/22 20:08:28;;;;;;;54.57;28.43;;;-4.60;99.90;;;;;;8271708;28;20217;-85
2021/12/22 20:12:29;;;;;;;44.90;21.50;;;-4.60;99.90;;;;;;8264152;28;20229;-80
2021/12/22 20:16:30;;;;;;;34.63;18.13;;;-4.60;99.90;;;;;;8299032;28;20258;-82
2021/12/22 20:20:32;;;;;;;29.13;15.37;;;-4.60;99.90;;;;;;8315933;28;20202;-82
2021/12/22 20:24:37;;;;;;;32.93;16.27;;;-4.70;99.90;;;;;;8263565;28;20190;-84
2021/12/22 20:28:40;;;;;;;29.30;14.43;;;-4.90;99.90;;;;;;8266668;28;20218;-81
2021/12/22 20:32:43;;;;;;;29.30;14.23;;;-5.00;99.90;;;;;;8250456;28;20214;-82
2021/12/22 20:36:44;;;;;;;27.00;13.90;;;-5.10;99.90;;;;;;8268203;28;20190;-84
2021/12/22 20:40:46;;;;;;;27.87;14.60;;;-5.20;99.90;;;;;;8236372;28;20237;-83
2021/12/22 20:44:49;;;;;;;29.67;13.77;;;-5.40;99.90;;;;;;8204427;28;20194;-84
2021/12/22 20:48:53;;;;;;;26.93;14.33;;;-5.40;99.90;;;;;;8206668;28;20210;-84
2021/12/22 20:52:57;;;;;;;29.73;13.67;;;-5.50;99.90;;;;;;8215334;28;20259;-83
2021/12/22 20:56:59;;;;;;;28.67;15.07;;;-5.60;99.90;;;;;;8287881;28;20191;-84
2021/12/22 21:01:02;;;;;;;31.00;15.53;;;-5.60;99.90;;;;;;8268425;28;20229;-84
2021/12/22 21:05:04;;;;;;;31.93;14.20;;;-5.70;99.90;;;;;;8269446;28;20263;-85
2021/12/22 21:09:05;;;;;;;25.90;13.70;;;-5.80;99.90;;;;;;8267915;28;20234;-84
2021/12/22 21:13:07;;;;;;;26.17;13.53;;;-5.90;99.90;;;;;;8219777;28;20193;-80
2021/12/22 21:17:09;;;;;;;30.83;15.27;;;-5.90;99.90;;;;;;8208922;28;21129;-83